sensor_id;sensor_type;location;lat;lon;timestamp;P1;durP1;ratioP1;P2;durP2;ratioP2
7503;SDS011;3793;48.136;11.536;2024-01-10T00:01:28;32.23;;;18.97;;
7503;SDS011;3793;48.136;11.536;2024-01-10T00:03:56;36.80;;;18.93;;
7503;SDS011;3793;48.136;11.536;2024-01-10T00:06:22;35.97;;;18.43;;
7503;SDS011;3793;48.136;11.536;2024-01-10T00:08:52;34.77;;;18.03;;
7503;SDS011;3793;48.136;11.536;2024-01-10T00:11:25;35.00;;;18.23;;
7503;SDS011;3793;48.136;11.536;2024-01-10T00:13:52;37.50;;;17.20;;
7503;SDS011;3793;48.136;11.536;2024-01-10T00:16:24;38.40;;;19.23;;
7503;SDS011;3793;48.136;11.536;2024-01-10T00:18:51;35.53;;;18.83;;
7503;SDS011;3793;48.136;11.536;2024-01-10T00:21:19;33.07;;;18.50;;
7503;SDS011;3793;48.136;11.536;2024-01-10T00:23:46;32.97;;;18.10;;
7503;SDS011;3793;48.136;11.536;2024-01-10T00:26:14;34.30;;;18.70;;
7503;SDS011;3793;48.136;11.536;2024-01-10T00:28:44;41.67;;;18.80;;
7503;SDS011;3793;48.136;11.536;2024-01-10T00:31:11;41.20;;;20.37;;
7503;SDS011;3793;48.136;11.536;2024-01-10T00:33:38;38.30;;;19.40;;
7503;SDS011;3793;48.136;11.536;2024-01-10T00:36:05;38.90;;;18.17;;
7503;SDS011;3793;48.136;11.536;2024-01-10T00:38:36;37.40;;;18.30;;
7503;SDS011;3793;48.136;11.536;2024-01-10T00:41:12;39.27;;;20.30;;
7503;SDS011;3793;48.136;11.536;2024-01-10T00:43:42;42.97;;;20.57;;
7503;SDS011;3793;48.136;11.536;2024-01-10T00:46:19;36.83;;;21.13;;
7503;SDS011;3793;48.136;11.536;2024-01-10T00:49:02;39.37;;;18.97;;
7503;SDS011;3793;48.136;11.536;2024-01-10T00:51:29;36.27;;;19.43;;
7503;SDS011;3793;48.136;11.536;2024-01-10T00:53:57;37.97;;;19.50;;
7503;SDS011;3793;48.136;11.536;2024-01-10T00:56:24;41.40;;;20.20;;
7503;SDS011;3793;48.136;11.536;2024-01-10T00:58:53;41.60;;;20.20;;
7503;SDS011;3793;48.136;11.536;2024-01-10T01:01:29;35.80;;;18.23;;
7503;SDS011;3793;48.136;11.536;2024-01-10T01:04:01;39.17;;;20.20;;
7503;SDS011;3793;48.136;11.536;2024-01-10T01:06:37;41.27;;;19.03;;
7503;SDS011;3793;48.136;11.536;2024-01-10T01:09:08;42.40;;;20.17;;
7503;SDS011;3793;48.136;11.536;2024-01-10T01:11:38;39.80;;;19.97;;
7503;SDS011;3793;48.136;11.536;2024-01-10T01:14:06;43.07;;;18.60;;
7503;SDS011;3793;48.136;11.536;2024-01-10T01:16:37;36.80;;;17.83;;
7503;SDS011;3793;48.136;11.536;2024-01-10T01:19:04;42.97;;;21.23;;
7503;SDS011;3793;48.136;11.536;2024-01-10T01:21:45;43.03;;;19.33;;
7503;SDS011;3793;48.136;11.536;2024-01-10T01:24:18;37.93;;;18.50;;
7503;SDS011;3793;48.136;11.536;2024-01-10T01:26:51;41.37;;;19.70;;
7503;SDS011;3793;48.136;11.536;2024-01-10T01:29:18;38.83;;;18.37;;
7503;SDS011;3793;48.136;11.536;2024-01-10T01:31:49;39.87;;;18.80;;
7503;SDS011;3793;48.136;11.536;2024-01-10T01:34:25;39.47;;;20.00;;
7503;SDS011;3793;48.136;11.536;2024-01-10T01:36:54;41.20;;;20.23;;
7503;SDS011;3793;48.136;11.536;2024-01-10T01:39:26;38.07;;;19.43;;
7503;SDS011;3793;48.136;11.536;2024-01-10T01:41:56;39.23;;;20.07;;
7503;SDS011;3793;48.136;11.536;2024-01-10T01:44:26;40.70;;;19.30;;
7503;SDS011;3793;48.136;11.536;2024-01-10T01:46:57;41.27;;;19.17;;
7503;SDS011;3793;48.136;11.536;2024-01-10T01:49:27;38.90;;;20.27;;
7503;SDS011;3793;48.136;11.536;2024-01-10T01:52:00;39.90;;;20.30;;
7503;SDS011;3793;48.136;11.536;2024-01-10T01:54:33;46.43;;;19.17;;
7503;SDS011;3793;48.136;11.536;2024-01-10T01:56:59;41.27;;;19.37;;
7503;SDS011;3793;48.136;11.536;2024-01-10T01:59:27;36.50;;;18.03;;
7503;SDS011;3793;48.136;11.536;2024-01-10T02:01:56;38.53;;;19.33;;
7503;SDS011;3793;48.136;11.536;2024-01-10T02:04:38;43.13;;;18.80;;
7503;SDS011;3793;48.136;11.536;2024-01-10T02:07:10;43.47;;;18.83;;
7503;SDS011;3793;48.136;11.536;2024-01-10T02:09:44;37.70;;;18.90;;
7503;SDS011;3793;48.136;11.536;2024-01-10T02:12:13;39.03;;;20.07;;
7503;SDS011;3793;48.136;11.536;2024-01-10T02:14:43;34.07;;;17.73;;
7503;SDS011;3793;48.136;11.536;2024-01-10T02:17:21;38.40;;;18.23;;
7503;SDS011;3793;48.136;11.536;2024-01-10T02:19:49;36.33;;;18.60;;
7503;SDS011;3793;48.136;11.536;2024-01-10T02:22:20;38.60;;;19.13;;
7503;SDS011;3793;48.136;11.536;2024-01-10T02:24:52;47.00;;;21.33;;
7503;SDS011;3793;48.136;11.536;2024-01-10T02:27:20;39.43;;;19.13;;
7503;SDS011;3793;48.136;11.536;2024-01-10T02:29:46;37.20;;;18.67;;
7503;SDS011;3793;48.136;11.536;2024-01-10T02:32:19;37.10;;;18.77;;
7503;SDS011;3793;48.136;11.536;2024-01-10T02:34:51;37.60;;;18.17;;
7503;SDS011;3793;48.136;11.536;2024-01-10T02:37:19;35.47;;;17.87;;
7503;SDS011;3793;48.136;11.536;2024-01-10T02:39:46;37.07;;;17.93;;
7503;SDS011;3793;48.136;11.536;2024-01-10T02:42:17;40.60;;;18.20;;
7503;SDS011;3793;48.136;11.536;2024-01-10T02:44:44;39.30;;;18.60;;
7503;SDS011;3793;48.136;11.536;2024-01-10T02:47:13;39.20;;;19.27;;
7503;SDS011;3793;48.136;11.536;2024-01-10T02:49:43;40.67;;;19.23;;
7503;SDS011;3793;48.136;11.536;2024-01-10T02:52:23;45.30;;;20.13;;
7503;SDS011;3793;48.136;11.536;2024-01-10T02:54:50;40.60;;;20.80;;
7503;SDS011;3793;48.136;11.536;2024-01-10T02:57:19;45.27;;;19.53;;
7503;SDS011;3793;48.136;11.536;2024-01-10T02:59:46;45.93;;;21.10;;
7503;SDS011;3793;48.136;11.536;2024-01-10T03:02:13;42.87;;;18.80;;
7503;SDS011;3793;48.136;11.536;2024-01-10T03:04:40;48.20;;;20.30;;
7503;SDS011;3793;48.136;11.536;2024-01-10T03:07:16;42.43;;;20.17;;
7503;SDS011;3793;48.136;11.536;2024-01-10T03:09:48;34.87;;;18.40;;
7503;SDS011;3793;48.136;11.536;2024-01-10T03:12:22;40.27;;;18.90;;
7503;SDS011;3793;48.136;11.536;2024-01-10T03:14:57;44.20;;;21.47;;
7503;SDS011;3793;48.136;11.536;2024-01-10T03:17:25;42.03;;;21.93;;
7503;SDS011;3793;48.136;11.536;2024-01-10T03:19:52;39.63;;;20.53;;
7503;SDS011;3793;48.136;11.536;2024-01-10T03:22:21;45.73;;;21.20;;
7503;SDS011;3793;48.136;11.536;2024-01-10T03:24:52;45.87;;;22.20;;
7503;SDS011;3793;48.136;11.536;2024-01-10T03:27:22;45.93;;;21.47;;
7503;SDS011;3793;48.136;11.536;2024-01-10T03:29:49;45.73;;;20.73;;
7503;SDS011;3793;48.136;11.536;2024-01-10T03:32:16;48.30;;;22.50;;
7503;SDS011;3793;48.136;11.536;2024-01-10T03:34:45;43.70;;;21.43;;
7503;SDS011;3793;48.136;11.536;2024-01-10T03:37:12;46.70;;;20.47;;
7503;SDS011;3793;48.136;11.536;2024-01-10T03:39:41;43.83;;;21.07;;
7503;SDS011;3793;48.136;11.536;2024-01-10T03:42:08;46.77;;;20.47;;
7503;SDS011;3793;48.136;11.536;2024-01-10T03:44:46;46.07;;;21.70;;
7503;SDS011;3793;48.136;11.536;2024-01-10T03:47:16;43.77;;;21.93;;
7503;SDS011;3793;48.136;11.536;2024-01-10T03:49:53;39.97;;;18.93;;
7503;SDS011;3793;48.136;11.536;2024-01-10T03:52:23;43.73;;;20.33;;
7503;SDS011;3793;48.136;11.536;2024-01-10T03:54:53;47.17;;;20.47;;
7503;SDS011;3793;48.136;11.536;2024-01-10T03:57:23;42.53;;;20.70;;
7503;SDS011;3793;48.136;11.536;2024-01-10T03:59:55;43.87;;;20.13;;
7503;SDS011;3793;48.136;11.536;2024-01-10T04:02:23;47.63;;;21.33;;
7503;SDS011;3793;48.136;11.536;2024-01-10T04:04:50;41.40;;;19.83;;
7503;SDS011;3793;48.136;11.536;2024-01-10T04:07:19;42.43;;;21.10;;
7503;SDS011;3793;48.136;11.536;2024-01-10T04:09:46;38.87;;;19.50;;
7503;SDS011;3793;48.136;11.536;2024-01-10T04:12:12;44.40;;;19.67;;
7503;SDS011;3793;48.136;11.536;2024-01-10T04:14:39;41.00;;;19.10;;
7503;SDS011;3793;48.136;11.536;2024-01-10T04:17:07;42.57;;;19.83;;
7503;SDS011;3793;48.136;11.536;2024-01-10T04:19:34;35.63;;;18.57;;
7503;SDS011;3793;48.136;11.536;2024-01-10T04:22:01;40.47;;;18.30;;
7503;SDS011;3793;48.136;11.536;2024-01-10T04:24:28;40.00;;;19.53;;
7503;SDS011;3793;48.136;11.536;2024-01-10T04:26:54;41.03;;;19.97;;
7503;SDS011;3793;48.136;11.536;2024-01-10T04:29:21;44.07;;;19.43;;
7503;SDS011;3793;48.136;11.536;2024-01-10T04:31:48;39.07;;;18.43;;
7503;SDS011;3793;48.136;11.536;2024-01-10T04:34:16;39.80;;;19.07;;
7503;SDS011;3793;48.136;11.536;2024-01-10T04:36:43;44.00;;;19.67;;
7503;SDS011;3793;48.136;11.536;2024-01-10T04:39:10;46.97;;;19.63;;
7503;SDS011;3793;48.136;11.536;2024-01-10T04:41:36;45.10;;;19.57;;
7503;SDS011;3793;48.136;11.536;2024-01-10T04:44:04;44.63;;;20.27;;
7503;SDS011;3793;48.136;11.536;2024-01-10T04:46:31;42.03;;;18.73;;
7503;SDS011;3793;48.136;11.536;2024-01-10T04:48:58;41.87;;;19.00;;
7503;SDS011;3793;48.136;11.536;2024-01-10T04:51:27;38.90;;;18.80;;
7503;SDS011;3793;48.136;11.536;2024-01-10T04:53:53;37.60;;;18.13;;
7503;SDS011;3793;48.136;11.536;2024-01-10T04:56:20;40.70;;;19.60;;
7503;SDS011;3793;48.136;11.536;2024-01-10T04:58:47;39.87;;;19.77;;
7503;SDS011;3793;48.136;11.536;2024-01-10T05:01:14;40.23;;;18.57;;
7503;SDS011;3793;48.136;11.536;2024-01-10T05:03:41;43.37;;;20.17;;
7503;SDS011;3793;48.136;11.536;2024-01-10T05:06:08;37.53;;;17.67;;
7503;SDS011;3793;48.136;11.536;2024-01-10T05:08:36;43.13;;;20.23;;
7503;SDS011;3793;48.136;11.536;2024-01-10T05:11:03;39.83;;;20.47;;
7503;SDS011;3793;48.136;11.536;2024-01-10T05:13:29;44.67;;;20.47;;
7503;SDS011;3793;48.136;11.536;2024-01-10T05:15:56;42.03;;;19.67;;
7503;SDS011;3793;48.136;11.536;2024-01-10T05:18:24;47.70;;;19.67;;
7503;SDS011;3793;48.136;11.536;2024-01-10T05:20:50;36.60;;;19.27;;
7503;SDS011;3793;48.136;11.536;2024-01-10T05:23:19;42.07;;;19.97;;
7503;SDS011;3793;48.136;11.536;2024-01-10T05:25:47;47.67;;;20.50;;
7503;SDS011;3793;48.136;11.536;2024-01-10T05:28:14;43.47;;;18.97;;
7503;SDS011;3793;48.136;11.536;2024-01-10T05:30:43;46.63;;;21.37;;
7503;SDS011;3793;48.136;11.536;2024-01-10T05:33:10;37.57;;;18.60;;
7503;SDS011;3793;48.136;11.536;2024-01-10T05:35:37;42.40;;;19.23;;
7503;SDS011;3793;48.136;11.536;2024-01-10T05:38:04;43.20;;;19.77;;
7503;SDS011;3793;48.136;11.536;2024-01-10T05:40:31;43.83;;;19.63;;
7503;SDS011;3793;48.136;11.536;2024-01-10T05:43:00;38.33;;;18.90;;
7503;SDS011;3793;48.136;11.536;2024-01-10T05:45:27;43.87;;;19.37;;
7503;SDS011;3793;48.136;11.536;2024-01-10T05:47:54;35.23;;;18.60;;
7503;SDS011;3793;48.136;11.536;2024-01-10T05:50:21;37.43;;;18.53;;
7503;SDS011;3793;48.136;11.536;2024-01-10T05:52:48;38.53;;;18.63;;
7503;SDS011;3793;48.136;11.536;2024-01-10T05:55:15;34.90;;;17.77;;
7503;SDS011;3793;48.136;11.536;2024-01-10T05:57:42;34.77;;;17.03;;
7503;SDS011;3793;48.136;11.536;2024-01-10T06:00:11;39.40;;;17.60;;
7503;SDS011;3793;48.136;11.536;2024-01-10T06:02:41;41.83;;;19.03;;
7503;SDS011;3793;48.136;11.536;2024-01-10T06:05:08;43.83;;;18.40;;
7503;SDS011;3793;48.136;11.536;2024-01-10T06:07:35;42.37;;;19.20;;
7503;SDS011;3793;48.136;11.536;2024-01-10T06:10:02;38.23;;;17.70;;
7503;SDS011;3793;48.136;11.536;2024-01-10T06:12:29;35.53;;;17.30;;
7503;SDS011;3793;48.136;11.536;2024-01-10T06:14:55;39.67;;;18.53;;
7503;SDS011;3793;48.136;11.536;2024-01-10T06:17:24;41.63;;;18.10;;
7503;SDS011;3793;48.136;11.536;2024-01-10T06:19:51;39.37;;;17.80;;
7503;SDS011;3793;48.136;11.536;2024-01-10T06:22:17;38.63;;;18.90;;
7503;SDS011;3793;48.136;11.536;2024-01-10T06:24:50;40.97;;;17.73;;
7503;SDS011;3793;48.136;11.536;2024-01-10T06:27:16;43.37;;;19.47;;
7503;SDS011;3793;48.136;11.536;2024-01-10T06:29:43;42.77;;;19.50;;
7503;SDS011;3793;48.136;11.536;2024-01-10T06:32:10;43.63;;;18.00;;
7503;SDS011;3793;48.136;11.536;2024-01-10T06:34:41;32.13;;;16.47;;
7503;SDS011;3793;48.136;11.536;2024-01-10T06:37:07;42.40;;;17.20;;
7503;SDS011;3793;48.136;11.536;2024-01-10T06:39:35;43.90;;;17.83;;
7503;SDS011;3793;48.136;11.536;2024-01-10T06:42:02;43.50;;;19.93;;
7503;SDS011;3793;48.136;11.536;2024-01-10T06:44:31;42.77;;;19.07;;
7503;SDS011;3793;48.136;11.536;2024-01-10T06:46:58;46.50;;;19.83;;
7503;SDS011;3793;48.136;11.536;2024-01-10T06:49:25;45.23;;;19.53;;
7503;SDS011;3793;48.136;11.536;2024-01-10T06:51:54;38.10;;;18.80;;
7503;SDS011;3793;48.136;11.536;2024-01-10T06:54:21;45.47;;;18.60;;
7503;SDS011;3793;48.136;11.536;2024-01-10T06:56:48;42.37;;;18.80;;
7503;SDS011;3793;48.136;11.536;2024-01-10T06:59:17;41.30;;;19.60;;
7503;SDS011;3793;48.136;11.536;2024-01-10T07:01:50;41.40;;;18.90;;
7503;SDS011;3793;48.136;11.536;2024-01-10T07:04:17;46.60;;;19.50;;
7503;SDS011;3793;48.136;11.536;2024-01-10T07:06:47;44.03;;;18.67;;
7503;SDS011;3793;48.136;11.536;2024-01-10T07:09:16;43.97;;;19.60;;
7503;SDS011;3793;48.136;11.536;2024-01-10T07:11:45;46.30;;;19.90;;
7503;SDS011;3793;48.136;11.536;2024-01-10T07:14:12;38.23;;;17.70;;
7503;SDS011;3793;48.136;11.536;2024-01-10T07:16:39;42.73;;;18.77;;
7503;SDS011;3793;48.136;11.536;2024-01-10T07:19:07;52.40;;;20.17;;
7503;SDS011;3793;48.136;11.536;2024-01-10T07:21:34;36.63;;;17.60;;
7503;SDS011;3793;48.136;11.536;2024-01-10T07:24:01;39.70;;;19.00;;
7503;SDS011;3793;48.136;11.536;2024-01-10T07:26:30;45.87;;;19.20;;
7503;SDS011;3793;48.136;11.536;2024-01-10T07:28:58;42.43;;;17.13;;
7503;SDS011;3793;48.136;11.536;2024-01-10T07:31:27;46.17;;;19.97;;
7503;SDS011;3793;48.136;11.536;2024-01-10T07:33:57;39.63;;;19.17;;
7503;SDS011;3793;48.136;11.536;2024-01-10T07:36:24;45.80;;;19.17;;
7503;SDS011;3793;48.136;11.536;2024-01-10T07:38:52;44.87;;;19.07;;
7503;SDS011;3793;48.136;11.536;2024-01-10T07:41:18;43.47;;;19.03;;
7503;SDS011;3793;48.136;11.536;2024-01-10T07:43:55;48.77;;;19.03;;
7503;SDS011;3793;48.136;11.536;2024-01-10T07:46:34;45.17;;;17.47;;
7503;SDS011;3793;48.136;11.536;2024-01-10T07:49:07;41.47;;;18.47;;
7503;SDS011;3793;48.136;11.536;2024-01-10T07:51:45;41.57;;;17.60;;
7503;SDS011;3793;48.136;11.536;2024-01-10T07:54:24;43.37;;;18.27;;
7503;SDS011;3793;48.136;11.536;2024-01-10T07:56:52;43.20;;;19.70;;
7503;SDS011;3793;48.136;11.536;2024-01-10T08:02:26;43.67;;;19.63;;
7503;SDS011;3793;48.136;11.536;2024-01-10T08:05:00;38.70;;;18.47;;
7503;SDS011;3793;48.136;11.536;2024-01-10T08:07:47;44.87;;;19.93;;
7503;SDS011;3793;48.136;11.536;2024-01-10T08:10:27;47.73;;;20.10;;
7503;SDS011;3793;48.136;11.536;2024-01-10T08:13:26;48.53;;;19.70;;
7503;SDS011;3793;48.136;11.536;2024-01-10T08:15:56;45.23;;;19.80;;
7503;SDS011;3793;48.136;11.536;2024-01-10T08:18:27;44.67;;;21.40;;
7503;SDS011;3793;48.136;11.536;2024-01-10T08:20:57;45.00;;;19.33;;
7503;SDS011;3793;48.136;11.536;2024-01-10T08:23:28;45.40;;;21.47;;
7503;SDS011;3793;48.136;11.536;2024-01-10T08:25:57;49.73;;;21.60;;
7503;SDS011;3793;48.136;11.536;2024-01-10T08:28:30;43.40;;;20.00;;
7503;SDS011;3793;48.136;11.536;2024-01-10T08:31:17;54.20;;;23.17;;
7503;SDS011;3793;48.136;11.536;2024-01-10T08:36:44;52.93;;;21.67;;
7503;SDS011;3793;48.136;11.536;2024-01-10T08:39:15;43.50;;;19.53;;
7503;SDS011;3793;48.136;11.536;2024-01-10T08:41:56;47.17;;;21.07;;
7503;SDS011;3793;48.136;11.536;2024-01-10T08:44:35;45.67;;;21.17;;
7503;SDS011;3793;48.136;11.536;2024-01-10T08:47:08;42.43;;;20.13;;
7503;SDS011;3793;48.136;11.536;2024-01-10T08:49:39;45.77;;;20.20;;
7503;SDS011;3793;48.136;11.536;2024-01-10T08:52:17;44.23;;;21.13;;
7503;SDS011;3793;48.136;11.536;2024-01-10T08:54:47;46.87;;;19.77;;
7503;SDS011;3793;48.136;11.536;2024-01-10T08:57:19;44.77;;;20.90;;
7503;SDS011;3793;48.136;11.536;2024-01-10T08:59:53;43.33;;;20.00;;
7503;SDS011;3793;48.136;11.536;2024-01-10T09:02:46;41.97;;;20.73;;
7503;SDS011;3793;48.136;11.536;2024-01-10T09:05:19;47.07;;;21.03;;
7503;SDS011;3793;48.136;11.536;2024-01-10T09:07:48;44.77;;;20.30;;
7503;SDS011;3793;48.136;11.536;2024-01-10T09:10:18;46.43;;;20.87;;
7503;SDS011;3793;48.136;11.536;2024-01-10T09:12:57;46.70;;;22.70;;
7503;SDS011;3793;48.136;11.536;2024-01-10T09:18:39;46.10;;;20.20;;
7503;SDS011;3793;48.136;11.536;2024-01-10T09:21:18;39.43;;;19.90;;
7503;SDS011;3793;48.136;11.536;2024-01-10T09:24:00;43.67;;;20.73;;
7503;SDS011;3793;48.136;11.536;2024-01-10T09:26:35;45.80;;;21.23;;
7503;SDS011;3793;48.136;11.536;2024-01-10T09:29:16;48.37;;;21.57;;
7503;SDS011;3793;48.136;11.536;2024-01-10T09:31:46;50.00;;;20.73;;
7503;SDS011;3793;48.136;11.536;2024-01-10T09:34:42;51.43;;;21.63;;
7503;SDS011;3793;48.136;11.536;2024-01-10T09:43:41;43.27;;;21.87;;
7503;SDS011;3793;48.136;11.536;2024-01-10T09:46:24;44.20;;;21.47;;
7503;SDS011;3793;48.136;11.536;2024-01-10T09:49:07;44.90;;;21.63;;
7503;SDS011;3793;48.136;11.536;2024-01-10T09:54:53;42.13;;;21.50;;
7503;SDS011;3793;48.136;11.536;2024-01-10T09:57:28;46.70;;;21.57;;
7503;SDS011;3793;48.136;11.536;2024-01-10T10:00:18;44.77;;;21.17;;
7503;SDS011;3793;48.136;11.536;2024-01-10T10:02:51;42.23;;;20.30;;
7503;SDS011;3793;48.136;11.536;2024-01-10T10:05:35;48.70;;;22.83;;
7503;SDS011;3793;48.136;11.536;2024-01-10T10:08:13;40.77;;;21.10;;
7503;SDS011;3793;48.136;11.536;2024-01-10T10:11:18;45.73;;;20.77;;
7503;SDS011;3793;48.136;11.536;2024-01-10T10:13:52;41.50;;;21.53;;
7503;SDS011;3793;48.136;11.536;2024-01-10T10:16:25;50.47;;;22.63;;
7503;SDS011;3793;48.136;11.536;2024-01-10T10:19:17;42.50;;;20.73;;
7503;SDS011;3793;48.136;11.536;2024-01-10T10:22:09;43.83;;;21.50;;
7503;SDS011;3793;48.136;11.536;2024-01-10T10:24:56;42.03;;;20.27;;
7503;SDS011;3793;48.136;11.536;2024-01-10T10:33:15;40.43;;;21.33;;
7503;SDS011;3793;48.136;11.536;2024-01-10T10:35:59;42.43;;;20.17;;
7503;SDS011;3793;48.136;11.536;2024-01-10T10:38:46;42.37;;;21.20;;
7503;SDS011;3793;48.136;11.536;2024-01-10T10:44:46;46.10;;;21.23;;
7503;SDS011;3793;48.136;11.536;2024-01-10T10:47:24;39.07;;;20.50;;
7503;SDS011;3793;48.136;11.536;2024-01-10T10:50:12;40.80;;;20.80;;
7503;SDS011;3793;48.136;11.536;2024-01-10T10:53:02;46.37;;;21.83;;
7503;SDS011;3793;48.136;11.536;2024-01-10T10:56:16;45.17;;;22.20;;
7503;SDS011;3793;48.136;11.536;2024-01-10T11:01:40;44.43;;;22.50;;
7503;SDS011;3793;48.136;11.536;2024-01-10T11:07:48;47.23;;;22.13;;
7503;SDS011;3793;48.136;11.536;2024-01-10T11:10:35;42.63;;;22.47;;
7503;SDS011;3793;48.136;11.536;2024-01-10T11:22:07;47.50;;;22.73;;
7503;SDS011;3793;48.136;11.536;2024-01-10T11:24:54;49.73;;;24.80;;
7503;SDS011;3793;48.136;11.536;2024-01-10T11:27:32;49.97;;;24.60;;
7503;SDS011;3793;48.136;11.536;2024-01-10T11:30:05;50.27;;;25.00;;
7503;SDS011;3793;48.136;11.536;2024-01-10T11:32:42;49.83;;;24.67;;
7503;SDS011;3793;48.136;11.536;2024-01-10T11:35:20;48.97;;;23.27;;
7503;SDS011;3793;48.136;11.536;2024-01-10T11:37:51;50.70;;;25.50;;
7503;SDS011;3793;48.136;11.536;2024-01-10T11:51:11;50.57;;;25.00;;
7503;SDS011;3793;48.136;11.536;2024-01-10T11:53:43;50.77;;;24.10;;
7503;SDS011;3793;48.136;11.536;2024-01-10T11:56:37;46.23;;;22.23;;
7503;SDS011;3793;48.136;11.536;2024-01-10T12:03:02;51.70;;;23.33;;
7503;SDS011;3793;48.136;11.536;2024-01-10T12:05:37;55.00;;;26.20;;
7503;SDS011;3793;48.136;11.536;2024-01-10T12:08:37;53.70;;;24.47;;
7503;SDS011;3793;48.136;11.536;2024-01-10T12:11:18;50.50;;;23.07;;
7503;SDS011;3793;48.136;11.536;2024-01-10T12:14:13;49.47;;;24.63;;
7503;SDS011;3793;48.136;11.536;2024-01-10T12:17:16;59.10;;;26.43;;
7503;SDS011;3793;48.136;11.536;2024-01-10T12:26:01;58.80;;;25.50;;
7503;SDS011;3793;48.136;11.536;2024-01-10T12:28:45;53.97;;;23.97;;
7503;SDS011;3793;48.136;11.536;2024-01-10T12:31:34;50.10;;;24.37;;
7503;SDS011;3793;48.136;11.536;2024-01-10T12:34:16;50.00;;;24.00;;
7503;SDS011;3793;48.136;11.536;2024-01-10T12:40:01;54.63;;;24.40;;
7503;SDS011;3793;48.136;11.536;2024-01-10T12:49:06;50.37;;;23.37;;
7503;SDS011;3793;48.136;11.536;2024-01-10T12:51:42;49.47;;;23.90;;
7503;SDS011;3793;48.136;11.536;2024-01-10T12:54:22;52.07;;;25.90;;
7503;SDS011;3793;48.136;11.536;2024-01-10T13:00:13;60.00;;;28.03;;
7503;SDS011;3793;48.136;11.536;2024-01-10T13:02:57;53.27;;;24.00;;
7503;SDS011;3793;48.136;11.536;2024-01-10T13:08:52;57.77;;;28.30;;
7503;SDS011;3793;48.136;11.536;2024-01-10T13:12:02;57.83;;;26.17;;
7503;SDS011;3793;48.136;11.536;2024-01-10T13:14:33;52.57;;;25.27;;
7503;SDS011;3793;48.136;11.536;2024-01-10T13:17:13;53.87;;;25.27;;
7503;SDS011;3793;48.136;11.536;2024-01-10T13:19:40;49.87;;;25.03;;
7503;SDS011;3793;48.136;11.536;2024-01-10T13:22:13;56.17;;;25.10;;
7503;SDS011;3793;48.136;11.536;2024-01-10T13:24:46;53.03;;;25.00;;
7503;SDS011;3793;48.136;11.536;2024-01-10T13:27:13;52.10;;;25.53;;
7503;SDS011;3793;48.136;11.536;2024-01-10T13:29:39;55.23;;;26.37;;
7503;SDS011;3793;48.136;11.536;2024-01-10T13:32:06;53.87;;;26.37;;
7503;SDS011;3793;48.136;11.536;2024-01-10T13:34:40;54.17;;;25.80;;
7503;SDS011;3793;48.136;11.536;2024-01-10T13:37:08;52.77;;;25.50;;
7503;SDS011;3793;48.136;11.536;2024-01-10T13:39:37;57.73;;;27.23;;
7503;SDS011;3793;48.136;11.536;2024-01-10T13:42:06;60.00;;;27.13;;
7503;SDS011;3793;48.136;11.536;2024-01-10T13:44:35;58.17;;;26.47;;
7503;SDS011;3793;48.136;11.536;2024-01-10T13:47:05;51.07;;;25.83;;
7503;SDS011;3793;48.136;11.536;2024-01-10T13:49:32;53.67;;;26.20;;
7503;SDS011;3793;48.136;11.536;2024-01-10T13:52:10;54.27;;;26.03;;
7503;SDS011;3793;48.136;11.536;2024-01-10T13:54:37;56.47;;;25.80;;
7503;SDS011;3793;48.136;11.536;2024-01-10T13:57:06;54.80;;;26.03;;
7503;SDS011;3793;48.136;11.536;2024-01-10T13:59:33;53.63;;;24.97;;
7503;SDS011;3793;48.136;11.536;2024-01-10T14:02:00;47.03;;;24.53;;
7503;SDS011;3793;48.136;11.536;2024-01-10T14:04:27;52.20;;;24.27;;
7503;SDS011;3793;48.136;11.536;2024-01-10T14:06:55;46.77;;;23.97;;
7503;SDS011;3793;48.136;11.536;2024-01-10T14:09:22;53.93;;;25.57;;
7503;SDS011;3793;48.136;11.536;2024-01-10T14:11:58;55.27;;;24.77;;
7503;SDS011;3793;48.136;11.536;2024-01-10T14:14:31;48.63;;;24.10;;
7503;SDS011;3793;48.136;11.536;2024-01-10T14:17:00;54.60;;;24.20;;
7503;SDS011;3793;48.136;11.536;2024-01-10T14:19:34;49.27;;;24.40;;
7503;SDS011;3793;48.136;11.536;2024-01-10T14:22:03;50.03;;;24.30;;
7503;SDS011;3793;48.136;11.536;2024-01-10T14:24:30;51.73;;;23.87;;
7503;SDS011;3793;48.136;11.536;2024-01-10T14:27:00;50.67;;;22.77;;
7503;SDS011;3793;48.136;11.536;2024-01-10T14:29:29;42.87;;;22.33;;
7503;SDS011;3793;48.136;11.536;2024-01-10T14:31:56;55.97;;;25.23;;
7503;SDS011;3793;48.136;11.536;2024-01-10T14:34:23;41.80;;;22.87;;
7503;SDS011;3793;48.136;11.536;2024-01-10T14:36:50;46.30;;;23.33;;
7503;SDS011;3793;48.136;11.536;2024-01-10T14:39:18;46.87;;;22.23;;
7503;SDS011;3793;48.136;11.536;2024-01-10T14:41:46;57.43;;;23.33;;
7503;SDS011;3793;48.136;11.536;2024-01-10T14:44:12;46.27;;;22.87;;
7503;SDS011;3793;48.136;11.536;2024-01-10T14:46:41;48.63;;;22.77;;
7503;SDS011;3793;48.136;11.536;2024-01-10T14:49:08;46.50;;;22.60;;
7503;SDS011;3793;48.136;11.536;2024-01-10T14:51:35;46.93;;;22.70;;
7503;SDS011;3793;48.136;11.536;2024-01-10T14:54:05;48.97;;;23.87;;
7503;SDS011;3793;48.136;11.536;2024-01-10T14:56:47;47.97;;;23.23;;
7503;SDS011;3793;48.136;11.536;2024-01-10T15:02:18;57.37;;;25.47;;
7503;SDS011;3793;48.136;11.536;2024-01-10T15:08:54;50.90;;;23.60;;
7503;SDS011;3793;48.136;11.536;2024-01-10T15:11:30;55.47;;;23.37;;
7503;SDS011;3793;48.136;11.536;2024-01-10T15:13:57;53.77;;;23.87;;
7503;SDS011;3793;48.136;11.536;2024-01-10T15:16:25;62.50;;;28.80;;
7503;SDS011;3793;48.136;11.536;2024-01-10T15:18:52;65.20;;;26.77;;
7503;SDS011;3793;48.136;11.536;2024-01-10T15:21:18;59.53;;;25.80;;
7503;SDS011;3793;48.136;11.536;2024-01-10T15:23:45;55.67;;;24.20;;
7503;SDS011;3793;48.136;11.536;2024-01-10T15:26:16;57.27;;;24.83;;
7503;SDS011;3793;48.136;11.536;2024-01-10T15:28:43;51.53;;;23.63;;
7503;SDS011;3793;48.136;11.536;2024-01-10T15:31:13;60.00;;;24.63;;
7503;SDS011;3793;48.136;11.536;2024-01-10T15:33:40;58.17;;;25.13;;
7503;SDS011;3793;48.136;11.536;2024-01-10T15:36:07;59.60;;;25.73;;
7503;SDS011;3793;48.136;11.536;2024-01-10T15:38:35;54.33;;;23.63;;
7503;SDS011;3793;48.136;11.536;2024-01-10T15:41:02;59.13;;;24.50;;
7503;SDS011;3793;48.136;11.536;2024-01-10T15:43:30;61.17;;;26.00;;
7503;SDS011;3793;48.136;11.536;2024-01-10T15:45:57;55.20;;;22.67;;
7503;SDS011;3793;48.136;11.536;2024-01-10T15:48:24;48.97;;;21.43;;
7503;SDS011;3793;48.136;11.536;2024-01-10T15:50:52;59.00;;;24.17;;
7503;SDS011;3793;48.136;11.536;2024-01-10T15:53:19;54.77;;;22.30;;
7503;SDS011;3793;48.136;11.536;2024-01-10T15:55:46;55.77;;;24.30;;
7503;SDS011;3793;48.136;11.536;2024-01-10T15:58:15;57.77;;;23.70;;
7503;SDS011;3793;48.136;11.536;2024-01-10T16:00:44;61.13;;;24.27;;
7503;SDS011;3793;48.136;11.536;2024-01-10T16:03:10;57.20;;;23.90;;
7503;SDS011;3793;48.136;11.536;2024-01-10T16:05:37;63.90;;;25.70;;
7503;SDS011;3793;48.136;11.536;2024-01-10T16:08:04;62.20;;;24.87;;
7503;SDS011;3793;48.136;11.536;2024-01-10T16:10:31;56.90;;;24.80;;
7503;SDS011;3793;48.136;11.536;2024-01-10T16:12:58;55.87;;;24.23;;
7503;SDS011;3793;48.136;11.536;2024-01-10T16:15:25;63.03;;;25.73;;
7503;SDS011;3793;48.136;11.536;2024-01-10T16:17:54;65.77;;;27.50;;
7503;SDS011;3793;48.136;11.536;2024-01-10T16:20:20;69.30;;;26.80;;
7503;SDS011;3793;48.136;11.536;2024-01-10T16:22:47;62.77;;;26.37;;
7503;SDS011;3793;48.136;11.536;2024-01-10T16:25:14;63.60;;;25.03;;
7503;SDS011;3793;48.136;11.536;2024-01-10T16:27:40;72.30;;;26.50;;